sensor_id;sensor_type;location;lat;lon;timestamp;P1;durP1;ratioP1;P2;durP2;ratioP2
908;SDS011;441;51.192;6.788;2022-09-03T00:02:25;1.97;;;1.20;;
908;SDS011;441;51.192;6.788;2022-09-03T00:04:59;1.27;;;1.20;;
908;SDS011;441;51.192;6.788;2022-09-03T00:07:34;1.20;;;1.20;;
908;SDS011;441;51.192;6.788;2022-09-03T00:10:08;1.20;;;1.20;;
908;SDS011;441;51.192;6.788;2022-09-03T00:12:41;1.60;;;1.20;;
908;SDS011;441;51.192;6.788;2022-09-03T00:15:10;1.47;;;1.47;;
908;SDS011;441;51.192;6.788;2022-09-03T00:17:41;1.00;;;1.00;;
908;SDS011;441;51.192;6.788;2022-09-03T00:20:14;1.37;;;1.30;;
908;SDS011;441;51.192;6.788;2022-09-03T00:22:45;3.43;;;1.60;;
908;SDS011;441;51.192;6.788;2022-09-03T00:25:16;2.00;;;1.90;;
908;SDS011;441;51.192;6.788;2022-09-03T00:27:47;1.90;;;1.67;;
908;SDS011;441;51.192;6.788;2022-09-03T00:30:19;1.27;;;1.23;;
908;SDS011;441;51.192;6.788;2022-09-03T00:32:51;1.40;;;1.40;;
908;SDS011;441;51.192;6.788;2022-09-03T00:35:22;1.40;;;1.30;;
908;SDS011;441;51.192;6.788;2022-09-03T00:37:53;1.43;;;1.33;;
908;SDS011;441;51.192;6.788;2022-09-03T00:43:13;1.87;;;1.13;;
908;SDS011;441;51.192;6.788;2022-09-03T00:45:50;1.40;;;1.37;;
908;SDS011;441;51.192;6.788;2022-09-03T00:48:25;2.00;;;1.90;;
908;SDS011;441;51.192;6.788;2022-09-03T00:51:03;1.30;;;1.27;;
908;SDS011;441;51.192;6.788;2022-09-03T00:53:37;1.53;;;1.53;;
908;SDS011;441;51.192;6.788;2022-09-03T00:56:17;1.30;;;1.30;;
908;SDS011;441;51.192;6.788;2022-09-03T00:58:57;2.00;;;1.90;;
908;SDS011;441;51.192;6.788;2022-09-03T01:01:34;2.30;;;1.33;;
908;SDS011;441;51.192;6.788;2022-09-03T01:04:11;1.30;;;1.20;;
908;SDS011;441;51.192;6.788;2022-09-03T01:06:53;1.20;;;1.20;;
908;SDS011;441;51.192;6.788;2022-09-03T01:09:30;1.20;;;1.20;;
908;SDS011;441;51.192;6.788;2022-09-03T01:12:07;1.03;;;1.03;;
908;SDS011;441;51.192;6.788;2022-09-03T01:14:43;1.77;;;1.40;;
908;SDS011;441;51.192;6.788;2022-09-03T01:17:20;2.43;;;2.23;;
908;SDS011;441;51.192;6.788;2022-09-03T01:20:10;1.50;;;1.40;;
908;SDS011;441;51.192;6.788;2022-09-03T01:25:51;1.80;;;1.50;;
908;SDS011;441;51.192;6.788;2022-09-03T01:28:28;1.10;;;1.10;;
908;SDS011;441;51.192;6.788;2022-09-03T01:31:10;1.40;;;1.37;;
908;SDS011;441;51.192;6.788;2022-09-03T01:33:47;1.37;;;1.37;;
908;SDS011;441;51.192;6.788;2022-09-03T01:36:22;0.93;;;0.93;;
908;SDS011;441;51.192;6.788;2022-09-03T01:38:58;1.00;;;1.00;;
908;SDS011;441;51.192;6.788;2022-09-03T01:41:30;1.10;;;1.10;;
908;SDS011;441;51.192;6.788;2022-09-03T01:44:28;1.20;;;1.20;;
908;SDS011;441;51.192;6.788;2022-09-03T01:47:10;1.50;;;1.50;;
908;SDS011;441;51.192;6.788;2022-09-03T01:49:45;1.50;;;1.50;;
908;SDS011;441;51.192;6.788;2022-09-03T01:52:24;1.37;;;1.30;;
908;SDS011;441;51.192;6.788;2022-09-03T01:55:05;1.17;;;1.10;;
908;SDS011;441;51.192;6.788;2022-09-03T01:57:44;1.20;;;1.20;;
908;SDS011;441;51.192;6.788;2022-09-03T02:00:18;1.57;;;1.47;;
908;SDS011;441;51.192;6.788;2022-09-03T02:02:46;1.37;;;1.37;;
908;SDS011;441;51.192;6.788;2022-09-03T02:05:16;1.37;;;1.37;;
908;SDS011;441;51.192;6.788;2022-09-03T02:07:49;1.80;;;1.43;;
908;SDS011;441;51.192;6.788;2022-09-03T02:10:25;3.87;;;1.90;;
908;SDS011;441;51.192;6.788;2022-09-03T02:12:55;3.33;;;1.70;;
908;SDS011;441;51.192;6.788;2022-09-03T02:15:26;0.97;;;0.97;;
908;SDS011;441;51.192;6.788;2022-09-03T02:17:55;1.57;;;1.47;;
908;SDS011;441;51.192;6.788;2022-09-03T02:20:26;1.07;;;1.07;;
908;SDS011;441;51.192;6.788;2022-09-03T02:22:55;1.17;;;1.17;;
908;SDS011;441;51.192;6.788;2022-09-03T02:25:23;1.23;;;1.23;;
908;SDS011;441;51.192;6.788;2022-09-03T02:27:55;1.50;;;1.47;;
908;SDS011;441;51.192;6.788;2022-09-03T02:30:23;1.23;;;1.23;;
908;SDS011;441;51.192;6.788;2022-09-03T02:32:52;1.40;;;1.30;;
908;SDS011;441;51.192;6.788;2022-09-03T02:35:19;1.17;;;1.17;;
908;SDS011;441;51.192;6.788;2022-09-03T02:37:45;1.70;;;1.50;;
908;SDS011;441;51.192;6.788;2022-09-03T02:40:12;1.50;;;1.40;;
908;SDS011;441;51.192;6.788;2022-09-03T02:42:40;1.37;;;1.27;;
908;SDS011;441;51.192;6.788;2022-09-03T02:45:09;1.37;;;1.27;;
908;SDS011;441;51.192;6.788;2022-09-03T02:47:44;1.10;;;1.10;;
908;SDS011;441;51.192;6.788;2022-09-03T02:50:16;1.27;;;1.27;;
908;SDS011;441;51.192;6.788;2022-09-03T02:52:43;1.70;;;1.57;;
908;SDS011;441;51.192;6.788;2022-09-03T02:55:10;1.87;;;1.77;;
908;SDS011;441;51.192;6.788;2022-09-03T02:57:38;1.33;;;1.23;;
908;SDS011;441;51.192;6.788;2022-09-03T03:00:05;1.43;;;1.33;;
908;SDS011;441;51.192;6.788;2022-09-03T03:02:33;1.10;;;1.10;;
908;SDS011;441;51.192;6.788;2022-09-03T03:05:00;1.10;;;1.10;;
908;SDS011;441;51.192;6.788;2022-09-03T03:07:30;1.37;;;1.30;;
908;SDS011;441;51.192;6.788;2022-09-03T03:10:00;3.13;;;1.30;;
908;SDS011;441;51.192;6.788;2022-09-03T03:12:27;1.00;;;1.00;;
908;SDS011;441;51.192;6.788;2022-09-03T03:14:55;1.47;;;1.03;;
908;SDS011;441;51.192;6.788;2022-09-03T03:17:22;1.30;;;1.03;;
908;SDS011;441;51.192;6.788;2022-09-03T03:19:50;0.90;;;0.90;;
908;SDS011;441;51.192;6.788;2022-09-03T03:22:17;2.40;;;1.10;;
908;SDS011;441;51.192;6.788;2022-09-03T03:24:45;1.10;;;1.10;;
908;SDS011;441;51.192;6.788;2022-09-03T03:27:14;1.77;;;1.67;;
908;SDS011;441;51.192;6.788;2022-09-03T03:29:42;1.00;;;1.00;;
908;SDS011;441;51.192;6.788;2022-09-03T03:32:09;1.93;;;1.70;;
908;SDS011;441;51.192;6.788;2022-09-03T03:34:36;1.93;;;1.50;;
908;SDS011;441;51.192;6.788;2022-09-03T03:37:03;2.00;;;1.43;;
908;SDS011;441;51.192;6.788;2022-09-03T03:39:31;1.40;;;1.30;;
908;SDS011;441;51.192;6.788;2022-09-03T03:41:59;2.40;;;1.20;;
908;SDS011;441;51.192;6.788;2022-09-03T03:44:26;2.13;;;1.10;;
908;SDS011;441;51.192;6.788;2022-09-03T03:46:53;0.93;;;0.90;;
908;SDS011;441;51.192;6.788;2022-09-03T03:49:20;1.07;;;1.07;;
908;SDS011;441;51.192;6.788;2022-09-03T03:51:47;1.43;;;1.33;;
908;SDS011;441;51.192;6.788;2022-09-03T03:54:14;1.90;;;1.80;;
908;SDS011;441;51.192;6.788;2022-09-03T03:56:41;1.30;;;1.30;;
908;SDS011;441;51.192;6.788;2022-09-03T03:59:09;1.20;;;1.20;;
908;SDS011;441;51.192;6.788;2022-09-03T04:01:36;1.00;;;1.00;;
908;SDS011;441;51.192;6.788;2022-09-03T04:04:03;2.33;;;1.17;;
908;SDS011;441;51.192;6.788;2022-09-03T04:06:30;1.63;;;1.53;;
908;SDS011;441;51.192;6.788;2022-09-03T04:08:57;1.40;;;1.20;;
908;SDS011;441;51.192;6.788;2022-09-03T04:11:24;1.30;;;1.30;;
908;SDS011;441;51.192;6.788;2022-09-03T04:13:51;0.90;;;0.90;;
908;SDS011;441;51.192;6.788;2022-09-03T04:16:20;1.20;;;1.10;;
908;SDS011;441;51.192;6.788;2022-09-03T04:18:48;1.33;;;1.23;;
908;SDS011;441;51.192;6.788;2022-09-03T04:21:16;1.53;;;1.43;;
908;SDS011;441;51.192;6.788;2022-09-03T04:23:44;1.27;;;1.17;;
908;SDS011;441;51.192;6.788;2022-09-03T04:26:13;2.07;;;1.50;;
908;SDS011;441;51.192;6.788;2022-09-03T04:28:42;1.53;;;1.40;;
908;SDS011;441;51.192;6.788;2022-09-03T04:31:09;3.37;;;1.10;;
908;SDS011;441;51.192;6.788;2022-09-03T04:33:38;1.53;;;1.43;;
908;SDS011;441;51.192;6.788;2022-09-03T04:36:07;1.30;;;1.30;;
908;SDS011;441;51.192;6.788;2022-09-03T04:38:35;1.40;;;1.17;;
908;SDS011;441;51.192;6.788;2022-09-03T04:41:03;1.20;;;1.20;;
908;SDS011;441;51.192;6.788;2022-09-03T04:43:31;1.13;;;1.13;;
908;SDS011;441;51.192;6.788;2022-09-03T04:45:58;1.23;;;1.13;;
908;SDS011;441;51.192;6.788;2022-09-03T04:48:26;1.00;;;1.00;;
908;SDS011;441;51.192;6.788;2022-09-03T04:51:00;1.03;;;1.03;;
908;SDS011;441;51.192;6.788;2022-09-03T04:53:29;1.50;;;1.13;;
908;SDS011;441;51.192;6.788;2022-09-03T04:55:56;1.10;;;1.10;;
908;SDS011;441;51.192;6.788;2022-09-03T04:58:23;1.20;;;1.20;;
908;SDS011;441;51.192;6.788;2022-09-03T05:00:50;1.10;;;1.00;;
908;SDS011;441;51.192;6.788;2022-09-03T05:03:17;1.03;;;1.03;;
908;SDS011;441;51.192;6.788;2022-09-03T05:05:50;1.67;;;1.57;;
908;SDS011;441;51.192;6.788;2022-09-03T05:08:19;0.87;;;0.87;;
908;SDS011;441;51.192;6.788;2022-09-03T05:10:47;1.77;;;1.40;;
908;SDS011;441;51.192;6.788;2022-09-03T05:13:14;1.20;;;1.20;;
908;SDS011;441;51.192;6.788;2022-09-03T05:15:41;1.40;;;1.30;;
908;SDS011;441;51.192;6.788;2022-09-03T05:18:08;1.20;;;1.20;;
908;SDS011;441;51.192;6.788;2022-09-03T05:20:35;1.20;;;1.10;;
908;SDS011;441;51.192;6.788;2022-09-03T05:23:02;1.90;;;1.37;;
908;SDS011;441;51.192;6.788;2022-09-03T05:25:30;1.30;;;1.13;;
908;SDS011;441;51.192;6.788;2022-09-03T05:27:57;1.30;;;1.20;;
908;SDS011;441;51.192;6.788;2022-09-03T05:30:25;1.00;;;1.00;;
908;SDS011;441;51.192;6.788;2022-09-03T05:32:52;1.00;;;1.00;;
908;SDS011;441;51.192;6.788;2022-09-03T05:35:19;2.40;;;1.40;;
908;SDS011;441;51.192;6.788;2022-09-03T05:37:46;1.40;;;1.40;;
908;SDS011;441;51.192;6.788;2022-09-03T05:40:13;1.73;;;1.53;;
908;SDS011;441;51.192;6.788;2022-09-03T05:42:41;1.67;;;1.10;;
908;SDS011;441;51.192;6.788;2022-09-03T05:45:09;1.57;;;1.47;;
908;SDS011;441;51.192;6.788;2022-09-03T05:47:36;1.07;;;1.00;;
908;SDS011;441;51.192;6.788;2022-09-03T05:50:05;1.23;;;1.23;;
908;SDS011;441;51.192;6.788;2022-09-03T05:52:34;1.80;;;1.20;;
908;SDS011;441;51.192;6.788;2022-09-03T05:55:02;1.50;;;1.40;;
908;SDS011;441;51.192;6.788;2022-09-03T05:57:29;1.10;;;1.10;;
908;SDS011;441;51.192;6.788;2022-09-03T05:59:57;1.50;;;1.03;;
908;SDS011;441;51.192;6.788;2022-09-03T06:02:25;1.17;;;1.00;;
908;SDS011;441;51.192;6.788;2022-09-03T06:04:52;1.03;;;1.03;;
908;SDS011;441;51.192;6.788;2022-09-03T06:07:20;1.37;;;1.27;;
908;SDS011;441;51.192;6.788;2022-09-03T06:09:46;1.30;;;1.30;;
908;SDS011;441;51.192;6.788;2022-09-03T06:12:14;1.27;;;1.27;;
908;SDS011;441;51.192;6.788;2022-09-03T06:14:41;4.97;;;1.67;;
908;SDS011;441;51.192;6.788;2022-09-03T06:17:11;1.43;;;1.33;;
908;SDS011;441;51.192;6.788;2022-09-03T06:19:39;1.00;;;1.00;;
908;SDS011;441;51.192;6.788;2022-09-03T06:22:09;1.80;;;1.70;;
908;SDS011;441;51.192;6.788;2022-09-03T06:24:37;1.20;;;1.20;;
908;SDS011;441;51.192;6.788;2022-09-03T06:27:06;1.60;;;1.30;;
908;SDS011;441;51.192;6.788;2022-09-03T06:29:35;1.70;;;1.60;;
908;SDS011;441;51.192;6.788;2022-09-03T06:32:05;1.60;;;1.27;;
908;SDS011;441;51.192;6.788;2022-09-03T06:34:35;1.30;;;1.30;;
908;SDS011;441;51.192;6.788;2022-09-03T06:37:02;1.40;;;1.30;;
908;SDS011;441;51.192;6.788;2022-09-03T06:39:30;1.57;;;1.30;;
908;SDS011;441;51.192;6.788;2022-09-03T06:41:57;1.00;;;1.00;;
908;SDS011;441;51.192;6.788;2022-09-03T06:44:24;2.30;;;2.00;;
908;SDS011;441;51.192;6.788;2022-09-03T06:46:52;3.03;;;1.50;;
908;SDS011;441;51.192;6.788;2022-09-03T06:49:19;1.10;;;1.10;;
908;SDS011;441;51.192;6.788;2022-09-03T06:51:47;4.33;;;1.63;;
908;SDS011;441;51.192;6.788;2022-09-03T06:54:14;1.10;;;1.10;;
908;SDS011;441;51.192;6.788;2022-09-03T06:56:41;1.50;;;1.43;;
908;SDS011;441;51.192;6.788;2022-09-03T06:59:08;1.40;;;1.30;;
908;SDS011;441;51.192;6.788;2022-09-03T07:01:36;1.40;;;1.40;;
908;SDS011;441;51.192;6.788;2022-09-03T07:04:05;1.30;;;1.17;;
908;SDS011;441;51.192;6.788;2022-09-03T07:06:35;1.33;;;1.23;;
908;SDS011;441;51.192;6.788;2022-09-03T07:09:05;1.10;;;1.10;;
908;SDS011;441;51.192;6.788;2022-09-03T07:11:32;1.20;;;1.10;;
908;SDS011;441;51.192;6.788;2022-09-03T07:14:00;1.00;;;1.00;;
908;SDS011;441;51.192;6.788;2022-09-03T07:16:29;2.00;;;1.10;;
908;SDS011;441;51.192;6.788;2022-09-03T07:18:58;5.73;;;1.43;;
908;SDS011;441;51.192;6.788;2022-09-03T07:21:28;1.20;;;1.10;;
908;SDS011;441;51.192;6.788;2022-09-03T07:23:58;2.53;;;1.80;;
908;SDS011;441;51.192;6.788;2022-09-03T07:26:29;1.30;;;1.30;;
908;SDS011;441;51.192;6.788;2022-09-03T07:28:57;1.43;;;1.33;;
908;SDS011;441;51.192;6.788;2022-09-03T07:31:26;1.10;;;1.10;;
908;SDS011;441;51.192;6.788;2022-09-03T07:33:56;1.07;;;1.07;;
908;SDS011;441;51.192;6.788;2022-09-03T07:36:24;1.13;;;1.10;;
908;SDS011;441;51.192;6.788;2022-09-03T07:38:53;1.57;;;1.50;;
908;SDS011;441;51.192;6.788;2022-09-03T07:41:22;1.10;;;1.10;;
908;SDS011;441;51.192;6.788;2022-09-03T07:43:52;1.13;;;1.13;;
908;SDS011;441;51.192;6.788;2022-09-03T07:46:20;1.50;;;1.40;;
908;SDS011;441;51.192;6.788;2022-09-03T07:48:49;0.90;;;0.90;;
908;SDS011;441;51.192;6.788;2022-09-03T07:51:17;1.30;;;1.30;;
908;SDS011;441;51.192;6.788;2022-09-03T07:53:46;1.27;;;1.17;;
908;SDS011;441;51.192;6.788;2022-09-03T07:56:14;1.43;;;1.27;;
908;SDS011;441;51.192;6.788;2022-09-03T07:58:42;1.10;;;1.10;;
908;SDS011;441;51.192;6.788;2022-09-03T08:01:14;3.40;;;1.23;;
908;SDS011;441;51.192;6.788;2022-09-03T08:03:43;1.37;;;1.37;;
908;SDS011;441;51.192;6.788;2022-09-03T08:06:11;1.57;;;1.40;;
908;SDS011;441;51.192;6.788;2022-09-03T08:08:39;3.43;;;1.30;;
908;SDS011;441;51.192;6.788;2022-09-03T08:11:09;1.97;;;1.60;;
908;SDS011;441;51.192;6.788;2022-09-03T08:13:38;1.00;;;1.00;;
908;SDS011;441;51.192;6.788;2022-09-03T08:16:08;4.37;;;2.00;;
908;SDS011;441;51.192;6.788;2022-09-03T08:18:38;1.70;;;1.20;;
908;SDS011;441;51.192;6.788;2022-09-03T08:21:05;1.17;;;1.07;;
908;SDS011;441;51.192;6.788;2022-09-03T08:23:35;2.33;;;1.30;;
908;SDS011;441;51.192;6.788;2022-09-03T08:26:03;1.30;;;1.27;;
908;SDS011;441;51.192;6.788;2022-09-03T08:28:31;1.87;;;1.33;;
908;SDS011;441;51.192;6.788;2022-09-03T08:30:58;3.63;;;1.43;;
908;SDS011;441;51.192;6.788;2022-09-03T08:33:30;1.73;;;1.57;;
908;SDS011;441;51.192;6.788;2022-09-03T08:36:05;9.10;;;1.80;;
908;SDS011;441;51.192;6.788;2022-09-03T08:38:33;1.40;;;1.30;;
908;SDS011;441;51.192;6.788;2022-09-03T08:41:06;1.30;;;1.30;;
908;SDS011;441;51.192;6.788;2022-09-03T08:43:49;1.63;;;1.53;;
908;SDS011;441;51.192;6.788;2022-09-03T08:46:23;1.40;;;1.30;;
908;SDS011;441;51.192;6.788;2022-09-03T08:48:57;1.50;;;1.40;;
908;SDS011;441;51.192;6.788;2022-09-03T08:51:26;1.13;;;1.13;;
908;SDS011;441;51.192;6.788;2022-09-03T08:53:53;1.47;;;1.47;;
908;SDS011;441;51.192;6.788;2022-09-03T08:56:24;1.57;;;1.47;;
908;SDS011;441;51.192;6.788;2022-09-03T08:58:52;1.20;;;1.20;;
908;SDS011;441;51.192;6.788;2022-09-03T09:01:22;2.60;;;1.50;;
908;SDS011;441;51.192;6.788;2022-09-03T09:04:03;1.30;;;1.30;;
908;SDS011;441;51.192;6.788;2022-09-03T09:06:38;1.70;;;1.60;;
908;SDS011;441;51.192;6.788;2022-09-03T09:09:14;2.60;;;1.90;;
908;SDS011;441;51.192;6.788;2022-09-03T09:11:50;4.30;;;2.40;;
908;SDS011;441;51.192;6.788;2022-09-03T09:14:26;1.50;;;1.40;;
908;SDS011;441;51.192;6.788;2022-09-03T09:17:00;1.40;;;1.40;;
908;SDS011;441;51.192;6.788;2022-09-03T09:19:36;1.50;;;1.40;;
908;SDS011;441;51.192;6.788;2022-09-03T09:22:13;1.90;;;1.80;;
908;SDS011;441;51.192;6.788;2022-09-03T09:24:49;1.75;;;1.50;;
908;SDS011;441;51.192;6.788;2022-09-03T09:27:19;1.33;;;1.23;;
908;SDS011;441;51.192;6.788;2022-09-03T09:29:48;1.60;;;1.50;;
908;SDS011;441;51.192;6.788;2022-09-03T09:32:16;3.07;;;1.80;;
908;SDS011;441;51.192;6.788;2022-09-03T09:34:44;1.80;;;1.77;;
908;SDS011;441;51.192;6.788;2022-09-03T09:37:13;1.30;;;1.20;;
908;SDS011;441;51.192;6.788;2022-09-03T09:39:52;1.70;;;1.47;;
908;SDS011;441;51.192;6.788;2022-09-03T09:42:21;1.50;;;1.40;;
908;SDS011;441;51.192;6.788;2022-09-03T09:44:48;1.87;;;1.70;;
908;SDS011;441;51.192;6.788;2022-09-03T09:47:20;1.50;;;1.40;;
908;SDS011;441;51.192;6.788;2022-09-03T09:49:51;1.33;;;1.30;;
908;SDS011;441;51.192;6.788;2022-09-03T09:52:21;2.57;;;1.83;;
908;SDS011;441;51.192;6.788;2022-09-03T09:54:50;1.27;;;1.23;;
908;SDS011;441;51.192;6.788;2022-09-03T09:57:20;1.57;;;1.47;;
908;SDS011;441;51.192;6.788;2022-09-03T09:59:48;1.57;;;1.50;;
908;SDS011;441;51.192;6.788;2022-09-03T10:02:18;2.63;;;1.77;;
908;SDS011;441;51.192;6.788;2022-09-03T10:04:52;1.37;;;1.37;;
908;SDS011;441;51.192;6.788;2022-09-03T10:07:23;1.40;;;1.40;;
908;SDS011;441;51.192;6.788;2022-09-03T10:09:58;1.50;;;1.50;;
908;SDS011;441;51.192;6.788;2022-09-03T10:12:27;1.77;;;1.67;;
908;SDS011;441;51.192;6.788;2022-09-03T10:14:59;1.60;;;1.50;;
908;SDS011;441;51.192;6.788;2022-09-03T10:17:35;1.50;;;1.50;;
908;SDS011;441;51.192;6.788;2022-09-03T10:20:10;1.80;;;1.70;;
908;SDS011;441;51.192;6.788;2022-09-03T10:22:58;1.93;;;1.83;;
908;SDS011;441;51.192;6.788;2022-09-03T10:25:29;2.00;;;1.87;;
908;SDS011;441;51.192;6.788;2022-09-03T10:28:04;2.07;;;1.97;;
908;SDS011;441;51.192;6.788;2022-09-03T10:30:33;2.73;;;1.90;;
908;SDS011;441;51.192;6.788;2022-09-03T10:33:26;1.97;;;1.87;;
908;SDS011;441;51.192;6.788;2022-09-03T10:36:02;2.87;;;1.47;;
908;SDS011;441;51.192;6.788;2022-09-03T10:38:37;2.20;;;2.00;;
908;SDS011;441;51.192;6.788;2022-09-03T10:41:11;1.77;;;1.50;;
908;SDS011;441;51.192;6.788;2022-09-03T10:43:51;1.80;;;1.70;;
908;SDS011;441;51.192;6.788;2022-09-03T10:46:40;2.23;;;2.13;;
908;SDS011;441;51.192;6.788;2022-09-03T10:49:27;10.70;;;3.20;;
908;SDS011;441;51.192;6.788;2022-09-03T10:52:02;2.97;;;2.67;;
908;SDS011;441;51.192;6.788;2022-09-03T10:54:46;3.63;;;2.67;;
908;SDS011;441;51.192;6.788;2022-09-03T10:57:27;4.00;;;2.60;;
908;SDS011;441;51.192;6.788;2022-09-03T11:00:03;2.47;;;2.17;;
908;SDS011;441;51.192;6.788;2022-09-03T11:02:45;2.17;;;2.07;;
908;SDS011;441;51.192;6.788;2022-09-03T11:05:37;2.10;;;2.00;;
908;SDS011;441;51.192;6.788;2022-09-03T11:08:09;2.50;;;2.40;;
908;SDS011;441;51.192;6.788;2022-09-03T11:10:44;2.50;;;2.40;;
908;SDS011;441;51.192;6.788;2022-09-03T11:13:16;1.77;;;1.77;;
908;SDS011;441;51.192;6.788;2022-09-03T11:15:48;1.97;;;1.87;;
908;SDS011;441;51.192;6.788;2022-09-03T11:18:19;2.00;;;1.90;;
908;SDS011;441;51.192;6.788;2022-09-03T11:20:50;3.03;;;1.87;;
908;SDS011;441;51.192;6.788;2022-09-03T11:23:20;2.00;;;1.73;;
908;SDS011;441;51.192;6.788;2022-09-03T11:25:51;1.90;;;1.80;;
908;SDS011;441;51.192;6.788;2022-09-03T11:28:23;5.53;;;1.80;;
908;SDS011;441;51.192;6.788;2022-09-03T11:31:05;2.33;;;2.23;;
908;SDS011;441;51.192;6.788;2022-09-03T11:33:43;1.90;;;1.80;;
908;SDS011;441;51.192;6.788;2022-09-03T11:36:12;1.97;;;1.87;;
908;SDS011;441;51.192;6.788;2022-09-03T11:38:46;2.10;;;1.53;;
908;SDS011;441;51.192;6.788;2022-09-03T11:41:21;2.00;;;1.90;;
908;SDS011;441;51.192;6.788;2022-09-03T11:43:51;2.00;;;1.90;;
908;SDS011;441;51.192;6.788;2022-09-03T11:46:26;2.27;;;2.07;;
908;SDS011;441;51.192;6.788;2022-09-03T11:48:55;2.20;;;1.93;;
908;SDS011;441;51.192;6.788;2022-09-03T11:51:31;1.30;;;1.30;;
908;SDS011;441;51.192;6.788;2022-09-03T11:54:02;2.30;;;1.90;;
908;SDS011;441;51.192;6.788;2022-09-03T11:56:32;3.50;;;2.20;;
908;SDS011;441;51.192;6.788;2022-09-03T11:59:02;2.43;;;2.00;;
908;SDS011;441;51.192;6.788;2022-09-03T12:01:31;1.93;;;1.83;;
908;SDS011;441;51.192;6.788;2022-09-03T12:04:02;1.67;;;1.67;;
908;SDS011;441;51.192;6.788;2022-09-03T12:06:36;1.80;;;1.70;;
908;SDS011;441;51.192;6.788;2022-09-03T12:12:25;1.60;;;1.50;;
908;SDS011;441;51.192;6.788;2022-09-03T12:15:07;2.70;;;2.33;;
908;SDS011;441;51.192;6.788;2022-09-03T12:17:42;1.50;;;1.50;;
908;SDS011;441;51.192;6.788;2022-09-03T12:20:37;1.80;;;1.80;;
908;SDS011;441;51.192;6.788;2022-09-03T12:23:04;2.20;;;2.10;;
908;SDS011;441;51.192;6.788;2022-09-03T12:25:31;4.43;;;1.90;;
908;SDS011;441;51.192;6.788;2022-09-03T12:28:00;1.90;;;1.80;;
908;SDS011;441;51.192;6.788;2022-09-03T12:30:36;1.80;;;1.80;;
908;SDS011;441;51.192;6.788;2022-09-03T12:33:04;1.73;;;1.63;;
908;SDS011;441;51.192;6.788;2022-09-03T12:35:31;1.77;;;1.67;;
908;SDS011;441;51.192;6.788;2022-09-03T12:37:59;1.83;;;1.70;;
908;SDS011;441;51.192;6.788;2022-09-03T12:40:26;2.23;;;2.13;;
908;SDS011;441;51.192;6.788;2022-09-03T12:42:59;2.27;;;2.17;;
908;SDS011;441;51.192;6.788;2022-09-03T12:45:41;2.10;;;2.03;;
908;SDS011;441;51.192;6.788;2022-09-03T12:48:11;2.40;;;2.30;;
908;SDS011;441;51.192;6.788;2022-09-03T12:50:40;2.33;;;2.23;;
908;SDS011;441;51.192;6.788;2022-09-03T12:53:08;2.60;;;2.40;;
908;SDS011;441;51.192;6.788;2022-09-03T12:55:39;2.10;;;2.03;;
908;SDS011;441;51.192;6.788;2022-09-03T12:58:11;2.03;;;1.93;;
908;SDS011;441;51.192;6.788;2022-09-03T13:00:42;2.00;;;1.90;;
908;SDS011;441;51.192;6.788;2022-09-03T13:03:15;2.50;;;2.07;;
908;SDS011;441;51.192;6.788;2022-09-03T13:05:45;2.40;;;2.30;;
908;SDS011;441;51.192;6.788;2022-09-03T13:08:18;2.50;;;2.03;;
908;SDS011;441;51.192;6.788;2022-09-03T13:10:49;2.00;;;1.90;;
908;SDS011;441;51.192;6.788;2022-09-03T13:13:20;2.30;;;2.20;;
908;SDS011;441;51.192;6.788;2022-09-03T13:16:05;2.33;;;2.23;;
908;SDS011;441;51.192;6.788;2022-09-03T13:18:46;2.30;;;2.20;;
908;SDS011;441;51.192;6.788;2022-09-03T13:21:26;2.33;;;2.23;;
908;SDS011;441;51.192;6.788;2022-09-03T13:24:21;2.33;;;2.10;;
908;SDS011;441;51.192;6.788;2022-09-03T13:27:04;2.70;;;2.50;;
908;SDS011;441;51.192;6.788;2022-09-03T13:29:48;2.50;;;2.40;;
908;SDS011;441;51.192;6.788;2022-09-03T13:32:33;2.67;;;2.57;;
908;SDS011;441;51.192;6.788;2022-09-03T13:35:13;2.43;;;2.27;;
908;SDS011;441;51.192;6.788;2022-09-03T13:37:51;2.60;;;2.40;;
908;SDS011;441;51.192;6.788;2022-09-03T13:40:23;2.50;;;2.40;;
908;SDS011;441;51.192;6.788;2022-09-03T13:43:00;2.40;;;2.30;;
908;SDS011;441;51.192;6.788;2022-09-03T13:45:40;2.40;;;2.30;;
908;SDS011;441;51.192;6.788;2022-09-03T13:48:14;2.63;;;2.53;;
908;SDS011;441;51.192;6.788;2022-09-03T13:51:03;2.23;;;2.13;;
908;SDS011;441;51.192;6.788;2022-09-03T13:53:41;2.70;;;2.60;;
908;SDS011;441;51.192;6.788;2022-09-03T13:59:04;2.10;;;2.00;;
908;SDS011;441;51.192;6.788;2022-09-03T14:01:40;2.20;;;2.00;;
908;SDS011;441;51.192;6.788;2022-09-03T14:04:20;2.30;;;2.20;;
908;SDS011;441;51.192;6.788;2022-09-03T14:06:56;2.30;;;2.20;;
908;SDS011;441;51.192;6.788;2022-09-03T14:09:29;2.10;;;1.90;;
908;SDS011;441;51.192;6.788;2022-09-03T14:12:04;5.33;;;3.83;;
908;SDS011;441;51.192;6.788;2022-09-03T14:14:40;6.40;;;3.90;;
908;SDS011;441;51.192;6.788;2022-09-03T14:17:15;5.60;;;3.90;;
908;SDS011;441;51.192;6.788;2022-09-03T14:19:53;9.60;;;5.80;;
908;SDS011;441;51.192;6.788;2022-09-03T14:22:25;10.60;;;5.23;;
908;SDS011;441;51.192;6.788;2022-09-03T14:25:04;7.40;;;4.47;;
908;SDS011;441;51.192;6.788;2022-09-03T14:27:36;6.47;;;4.63;;
908;SDS011;441;51.192;6.788;2022-09-03T14:30:03;8.63;;;4.53;;
908;SDS011;441;51.192;6.788;2022-09-03T14:32:38;9.00;;;4.27;;
908;SDS011;441;51.192;6.788;2022-09-03T14:35:18;7.17;;;3.77;;
908;SDS011;441;51.192;6.788;2022-09-03T14:38:12;7.97;;;4.47;;
908;SDS011;441;51.192;6.788;2022-09-03T14:41:03;4.23;;;3.80;;
908;SDS011;441;51.192;6.788;2022-09-03T14:43:40;7.23;;;4.23;;
908;SDS011;441;51.192;6.788;2022-09-03T14:46:32;3.97;;;3.50;;
908;SDS011;441;51.192;6.788;2022-09-03T14:49:14;4.07;;;3.40;;
908;SDS011;441;51.192;6.788;2022-09-03T14:52:05;5.60;;;3.73;;
908;SDS011;441;51.192;6.788;2022-09-03T14:54:46;3.53;;;3.20;;
908;SDS011;441;51.192;6.788;2022-09-03T14:57:41;5.43;;;3.50;;
908;SDS011;441;51.192;6.788;2022-09-03T15:00:24;4.93;;;2.90;;
908;SDS011;441;51.192;6.788;2022-09-03T15:06:08;5.70;;;3.60;;
908;SDS011;441;51.192;6.788;2022-09-03T15:08:58;10.10;;;3.93;;
908;SDS011;441;51.192;6.788;2022-09-03T15:11:43;4.97;;;3.50;;
908;SDS011;441;51.192;6.788;2022-09-03T15:14:16;22.53;;;5.97;;
908;SDS011;441;51.192;6.788;2022-09-03T15:16:50;4.97;;;3.20;;
908;SDS011;441;51.192;6.788;2022-09-03T15:19:43;3.33;;;2.80;;
908;SDS011;441;51.192;6.788;2022-09-03T15:22:26;3.17;;;2.97;;
908;SDS011;441;51.192;6.788;2022-09-03T15:25:05;2.90;;;2.70;;
908;SDS011;441;51.192;6.788;2022-09-03T15:27:48;4.90;;;2.47;;
908;SDS011;441;51.192;6.788;2022-09-03T15:30:26;3.70;;;3.20;;
908;SDS011;441;51.192;6.788;2022-09-03T15:33:03;3.83;;;3.47;;
908;SDS011;441;51.192;6.788;2022-09-03T15:35:44;2.70;;;2.60;;
908;SDS011;441;51.192;6.788;2022-09-03T15:38:30;2.93;;;2.57;;
908;SDS011;441;51.192;6.788;2022-09-03T15:41:06;2.37;;;2.20;;
908;SDS011;441;51.192;6.788;2022-09-03T15:43:42;3.13;;;2.20;;
908;SDS011;441;51.192;6.788;2022-09-03T15:46:27;3.40;;;2.83;;
908;SDS011;441;51.192;6.788;2022-09-03T15:49:03;2.90;;;2.70;;
908;SDS011;441;51.192;6.788;2022-09-03T15:51:40;2.80;;;2.60;;
908;SDS011;441;51.192;6.788;2022-09-03T15:54:16;3.50;;;2.90;;
908;SDS011;441;51.192;6.788;2022-09-03T15:56:51;2.60;;;2.40;;
908;SDS011;441;51.192;6.788;2022-09-03T15:59:27;2.70;;;2.50;;
908;SDS011;441;51.192;6.788;2022-09-03T16:02:03;2.70;;;2.50;;
908;SDS011;441;51.192;6.788;2022-09-03T16:04:38;2.47;;;2.37;;
908;SDS011;441;51.192;6.788;2022-09-03T16:07:16;2.53;;;2.33;;
908;SDS011;441;51.192;6.788;2022-09-03T16:09:53;2.93;;;2.73;;
908;SDS011;441;51.192;6.788;2022-09-03T16:12:33;2.47;;;2.27;;
908;SDS011;441;51.192;6.788;2022-09-03T16:15:06;2.97;;;2.70;;
908;SDS011;441;51.192;6.788;2022-09-03T16:17:42;2.80;;;2.60;;
908;SDS011;441;51.192;6.788;2022-09-03T16:20:18;2.90;;;2.80;;
908;SDS011;441;51.192;6.788;2022-09-03T16:22:49;2.30;;;2.20;;
908;SDS011;441;51.192;6.788;2022-09-03T16:25:23;3.10;;;2.80;;
908;SDS011;441;51.192;6.788;2022-09-03T16:28:03;2.50;;;2.40;;
908;SDS011;441;51.192;6.788;2022-09-03T16:30:40;2.70;;;2.60;;
908;SDS011;441;51.192;6.788;2022-09-03T16:33:18;2.43;;;2.30;;
908;SDS011;441;51.192;6.788;2022-09-03T16:35:54;2.63;;;2.53;;